sensor_id;sensor_type;location;lat;lon;timestamp;P1;durP1;ratioP1;P2;durP2;ratioP2
20375;SDS011;10347;51.828;6.466;2023-05-19T00:02:13;6.97;;;3.55;;
20375;SDS011;10347;51.828;6.466;2023-05-19T00:04:39;7.22;;;2.80;;
20375;SDS011;10347;51.828;6.466;2023-05-19T00:07:05;4.05;;;3.13;;
20375;SDS011;10347;51.828;6.466;2023-05-19T00:09:35;5.82;;;3.03;;
20375;SDS011;10347;51.828;6.466;2023-05-19T00:12:01;7.78;;;3.70;;
20375;SDS011;10347;51.828;6.466;2023-05-19T00:14:27;8.18;;;3.65;;
20375;SDS011;10347;51.828;6.466;2023-05-19T00:16:53;4.43;;;3.50;;
20375;SDS011;10347;51.828;6.466;2023-05-19T00:19:20;5.35;;;3.30;;
20375;SDS011;10347;51.828;6.466;2023-05-19T00:21:45;4.68;;;3.08;;
20375;SDS011;10347;51.828;6.466;2023-05-19T00:24:11;8.40;;;3.50;;
20375;SDS011;10347;51.828;6.466;2023-05-19T00:26:37;5.75;;;3.13;;
20375;SDS011;10347;51.828;6.466;2023-05-19T00:29:03;6.70;;;3.70;;
20375;SDS011;10347;51.828;6.466;2023-05-19T00:31:28;5.28;;;3.58;;
20375;SDS011;10347;51.828;6.466;2023-05-19T00:33:55;5.45;;;3.50;;
20375;SDS011;10347;51.828;6.466;2023-05-19T00:36:21;6.40;;;3.80;;
20375;SDS011;10347;51.828;6.466;2023-05-19T00:38:46;6.80;;;3.47;;
20375;SDS011;10347;51.828;6.466;2023-05-19T00:41:12;4.30;;;3.42;;
20375;SDS011;10347;51.828;6.466;2023-05-19T00:43:38;8.52;;;3.65;;
20375;SDS011;10347;51.828;6.466;2023-05-19T00:46:03;5.03;;;3.33;;
20375;SDS011;10347;51.828;6.466;2023-05-19T00:48:29;5.35;;;3.45;;
20375;SDS011;10347;51.828;6.466;2023-05-19T00:50:55;6.13;;;3.53;;
20375;SDS011;10347;51.828;6.466;2023-05-19T00:53:28;8.07;;;3.53;;
20375;SDS011;10347;51.828;6.466;2023-05-19T00:55:55;8.27;;;3.75;;
20375;SDS011;10347;51.828;6.466;2023-05-19T00:58:21;8.77;;;4.57;;
20375;SDS011;10347;51.828;6.466;2023-05-19T01:00:49;6.07;;;3.45;;
20375;SDS011;10347;51.828;6.466;2023-05-19T01:03:15;5.68;;;3.20;;
20375;SDS011;10347;51.828;6.466;2023-05-19T01:05:44;7.35;;;3.40;;
20375;SDS011;10347;51.828;6.466;2023-05-19T01:08:10;5.20;;;3.25;;
20375;SDS011;10347;51.828;6.466;2023-05-19T01:10:35;4.95;;;3.47;;
20375;SDS011;10347;51.828;6.466;2023-05-19T01:13:02;5.22;;;3.50;;
20375;SDS011;10347;51.828;6.466;2023-05-19T01:15:28;6.53;;;4.05;;
20375;SDS011;10347;51.828;6.466;2023-05-19T01:18:01;4.88;;;3.47;;
20375;SDS011;10347;51.828;6.466;2023-05-19T01:31:33;6.95;;;3.60;;
20375;SDS011;10347;51.828;6.466;2023-05-19T01:34:01;6.63;;;4.38;;
20375;SDS011;10347;51.828;6.466;2023-05-19T01:36:28;4.78;;;3.60;;
20375;SDS011;10347;51.828;6.466;2023-05-19T01:38:57;5.30;;;3.58;;
20375;SDS011;10347;51.828;6.466;2023-05-19T01:41:23;6.53;;;3.35;;
20375;SDS011;10347;51.828;6.466;2023-05-19T01:43:50;8.38;;;3.80;;
20375;SDS011;10347;51.828;6.466;2023-05-19T01:46:16;6.32;;;3.65;;
20375;SDS011;10347;51.828;6.466;2023-05-19T01:48:43;5.68;;;3.30;;
20375;SDS011;10347;51.828;6.466;2023-05-19T01:51:09;4.53;;;3.47;;
20375;SDS011;10347;51.828;6.466;2023-05-19T01:53:35;8.55;;;3.83;;
20375;SDS011;10347;51.828;6.466;2023-05-19T01:56:01;9.52;;;4.97;;
20375;SDS011;10347;51.828;6.466;2023-05-19T01:58:46;10.23;;;4.82;;
20375;SDS011;10347;51.828;6.466;2023-05-19T02:01:20;10.40;;;4.57;;
20375;SDS011;10347;51.828;6.466;2023-05-19T02:04:50;8.15;;;4.43;;
20375;SDS011;10347;51.828;6.466;2023-05-19T02:07:07;6.57;;;3.88;;
20375;SDS011;10347;51.828;6.466;2023-05-19T02:09:51;9.23;;;4.18;;
20375;SDS011;10347;51.828;6.466;2023-05-19T02:15:06;3.47;;;2.88;;
20375;SDS011;10347;51.828;6.466;2023-05-19T02:17:45;7.70;;;3.85;;
20375;SDS011;10347;51.828;6.466;2023-05-19T02:20:14;8.90;;;4.13;;
20375;SDS011;10347;51.828;6.466;2023-05-19T02:22:40;12.55;;;4.95;;
20375;SDS011;10347;51.828;6.466;2023-05-19T02:25:06;6.00;;;3.88;;
20375;SDS011;10347;51.828;6.466;2023-05-19T02:27:36;6.75;;;4.35;;
20375;SDS011;10347;51.828;6.466;2023-05-19T02:30:03;5.03;;;3.45;;
20375;SDS011;10347;51.828;6.466;2023-05-19T02:32:30;5.63;;;3.80;;
20375;SDS011;10347;51.828;6.466;2023-05-19T02:34:56;5.55;;;3.55;;
20375;SDS011;10347;51.828;6.466;2023-05-19T02:37:21;8.77;;;4.40;;
20375;SDS011;10347;51.828;6.466;2023-05-19T02:39:49;8.43;;;4.47;;
20375;SDS011;10347;51.828;6.466;2023-05-19T02:42:15;6.45;;;3.72;;
20375;SDS011;10347;51.828;6.466;2023-05-19T02:44:42;6.22;;;4.15;;
20375;SDS011;10347;51.828;6.466;2023-05-19T02:47:08;4.45;;;3.47;;
20375;SDS011;10347;51.828;6.466;2023-05-19T02:49:33;5.90;;;3.85;;
20375;SDS011;10347;51.828;6.466;2023-05-19T02:51:59;4.65;;;3.70;;
20375;SDS011;10347;51.828;6.466;2023-05-19T02:54:26;10.18;;;4.35;;
20375;SDS011;10347;51.828;6.466;2023-05-19T02:56:52;8.27;;;4.05;;
20375;SDS011;10347;51.828;6.466;2023-05-19T02:59:17;8.65;;;3.97;;
20375;SDS011;10347;51.828;6.466;2023-05-19T03:01:43;6.57;;;4.68;;
20375;SDS011;10347;51.828;6.466;2023-05-19T03:04:08;5.82;;;3.80;;
20375;SDS011;10347;51.828;6.466;2023-05-19T03:06:34;7.18;;;4.30;;
20375;SDS011;10347;51.828;6.466;2023-05-19T03:09:00;6.25;;;3.90;;
20375;SDS011;10347;51.828;6.466;2023-05-19T03:11:25;5.65;;;4.03;;
20375;SDS011;10347;51.828;6.466;2023-05-19T03:13:51;4.57;;;3.67;;
20375;SDS011;10347;51.828;6.466;2023-05-19T03:16:16;6.13;;;3.92;;
20375;SDS011;10347;51.828;6.466;2023-05-19T03:18:42;8.90;;;4.40;;
20375;SDS011;10347;51.828;6.466;2023-05-19T03:21:08;5.55;;;3.75;;
20375;SDS011;10347;51.828;6.466;2023-05-19T03:23:33;6.20;;;3.75;;
20375;SDS011;10347;51.828;6.466;2023-05-19T03:25:59;6.35;;;4.18;;
20375;SDS011;10347;51.828;6.466;2023-05-19T03:28:25;6.25;;;4.32;;
20375;SDS011;10347;51.828;6.466;2023-05-19T03:30:53;6.15;;;3.90;;
20375;SDS011;10347;51.828;6.466;2023-05-19T03:33:19;7.80;;;4.82;;
20375;SDS011;10347;51.828;6.466;2023-05-19T03:35:45;7.05;;;4.60;;
20375;SDS011;10347;51.828;6.466;2023-05-19T03:38:10;9.23;;;4.18;;
20375;SDS011;10347;51.828;6.466;2023-05-19T03:40:36;8.68;;;4.38;;
20375;SDS011;10347;51.828;6.466;2023-05-19T03:43:02;5.93;;;4.25;;
20375;SDS011;10347;51.828;6.466;2023-05-19T03:45:27;7.63;;;4.47;;
20375;SDS011;10347;51.828;6.466;2023-05-19T03:47:53;7.63;;;4.78;;
20375;SDS011;10347;51.828;6.466;2023-05-19T03:50:18;7.88;;;4.82;;
20375;SDS011;10347;51.828;6.466;2023-05-19T03:52:45;4.25;;;3.72;;
20375;SDS011;10347;51.828;6.466;2023-05-19T03:55:12;5.10;;;3.70;;
20375;SDS011;10347;51.828;6.466;2023-05-19T03:57:38;7.55;;;5.18;;
20375;SDS011;10347;51.828;6.466;2023-05-19T04:00:05;7.03;;;4.43;;
20375;SDS011;10347;51.828;6.466;2023-05-19T04:02:31;6.85;;;4.35;;
20375;SDS011;10347;51.828;6.466;2023-05-19T04:04:57;7.35;;;4.70;;
20375;SDS011;10347;51.828;6.466;2023-05-19T04:07:22;10.13;;;5.28;;
20375;SDS011;10347;51.828;6.466;2023-05-19T04:09:48;7.60;;;4.90;;
20375;SDS011;10347;51.828;6.466;2023-05-19T04:12:14;8.20;;;4.35;;
20375;SDS011;10347;51.828;6.466;2023-05-19T04:14:40;7.40;;;4.80;;
20375;SDS011;10347;51.828;6.466;2023-05-19T04:17:05;5.47;;;4.30;;
20375;SDS011;10347;51.828;6.466;2023-05-19T04:19:31;7.35;;;4.75;;
20375;SDS011;10347;51.828;6.466;2023-05-19T04:21:57;7.30;;;5.25;;
20375;SDS011;10347;51.828;6.466;2023-05-19T04:24:23;4.45;;;4.03;;
20375;SDS011;10347;51.828;6.466;2023-05-19T04:26:48;6.50;;;4.65;;
20375;SDS011;10347;51.828;6.466;2023-05-19T04:29:14;4.35;;;3.88;;
20375;SDS011;10347;51.828;6.466;2023-05-19T04:31:41;4.78;;;4.30;;
20375;SDS011;10347;51.828;6.466;2023-05-19T04:34:08;8.70;;;4.20;;
20375;SDS011;10347;51.828;6.466;2023-05-19T04:36:34;6.00;;;3.92;;
20375;SDS011;10347;51.828;6.466;2023-05-19T04:39:00;6.57;;;4.28;;
20375;SDS011;10347;51.828;6.466;2023-05-19T04:41:32;4.63;;;3.88;;
20375;SDS011;10347;51.828;6.466;2023-05-19T04:43:58;6.20;;;4.00;;
20375;SDS011;10347;51.828;6.466;2023-05-19T04:46:25;5.88;;;3.97;;
20375;SDS011;10347;51.828;6.466;2023-05-19T04:48:51;4.15;;;3.75;;
20375;SDS011;10347;51.828;6.466;2023-05-19T04:51:17;5.45;;;3.78;;
20375;SDS011;10347;51.828;6.466;2023-05-19T04:53:43;4.43;;;4.00;;
20375;SDS011;10347;51.828;6.466;2023-05-19T04:56:09;8.23;;;4.57;;
20375;SDS011;10347;51.828;6.466;2023-05-19T04:58:39;8.32;;;4.53;;
20375;SDS011;10347;51.828;6.466;2023-05-19T05:01:05;6.53;;;4.32;;
20375;SDS011;10347;51.828;6.466;2023-05-19T05:03:31;6.47;;;4.25;;
20375;SDS011;10347;51.828;6.466;2023-05-19T05:05:58;6.72;;;4.15;;
20375;SDS011;10347;51.828;6.466;2023-05-19T05:08:24;3.95;;;3.65;;
20375;SDS011;10347;51.828;6.466;2023-05-19T05:10:49;6.80;;;3.92;;
20375;SDS011;10347;51.828;6.466;2023-05-19T05:13:21;7.25;;;4.28;;
20375;SDS011;10347;51.828;6.466;2023-05-19T05:15:48;6.07;;;4.60;;
20375;SDS011;10347;51.828;6.466;2023-05-19T05:18:14;6.45;;;4.25;;
20375;SDS011;10347;51.828;6.466;2023-05-19T05:20:41;8.60;;;4.70;;
20375;SDS011;10347;51.828;6.466;2023-05-19T05:23:07;7.43;;;4.82;;
20375;SDS011;10347;51.828;6.466;2023-05-19T05:25:34;4.80;;;4.28;;
20375;SDS011;10347;51.828;6.466;2023-05-19T05:28:00;8.98;;;5.20;;
20375;SDS011;10347;51.828;6.466;2023-05-19T05:30:29;10.55;;;6.03;;
20375;SDS011;10347;51.828;6.466;2023-05-19T05:32:54;9.32;;;5.03;;
20375;SDS011;10347;51.828;6.466;2023-05-19T05:35:20;5.57;;;4.20;;
20375;SDS011;10347;51.828;6.466;2023-05-19T05:37:47;8.52;;;5.32;;
20375;SDS011;10347;51.828;6.466;2023-05-19T05:40:13;11.20;;;5.30;;
20375;SDS011;10347;51.828;6.466;2023-05-19T05:42:39;9.07;;;5.30;;
20375;SDS011;10347;51.828;6.466;2023-05-19T05:45:05;6.53;;;4.28;;
20375;SDS011;10347;51.828;6.466;2023-05-19T05:47:31;8.85;;;4.38;;
20375;SDS011;10347;51.828;6.466;2023-05-19T05:49:57;6.53;;;4.70;;
20375;SDS011;10347;51.828;6.466;2023-05-19T05:52:23;6.65;;;4.30;;
20375;SDS011;10347;51.828;6.466;2023-05-19T05:54:53;6.63;;;5.10;;
20375;SDS011;10347;51.828;6.466;2023-05-19T05:57:19;9.88;;;5.38;;
20375;SDS011;10347;51.828;6.466;2023-05-19T05:59:45;9.70;;;5.75;;
20375;SDS011;10347;51.828;6.466;2023-05-19T06:02:11;6.30;;;4.70;;
20375;SDS011;10347;51.828;6.466;2023-05-19T06:04:37;7.35;;;4.65;;
20375;SDS011;10347;51.828;6.466;2023-05-19T06:07:02;6.60;;;4.82;;
20375;SDS011;10347;51.828;6.466;2023-05-19T06:09:28;9.00;;;4.63;;
20375;SDS011;10347;51.828;6.466;2023-05-19T06:11:54;8.23;;;4.22;;
20375;SDS011;10347;51.828;6.466;2023-05-19T06:14:21;6.88;;;4.22;;
20375;SDS011;10347;51.828;6.466;2023-05-19T06:16:47;8.18;;;4.40;;
20375;SDS011;10347;51.828;6.466;2023-05-19T06:19:13;9.23;;;4.60;;
20375;SDS011;10347;51.828;6.466;2023-05-19T06:21:38;8.40;;;4.47;;
20375;SDS011;10347;51.828;6.466;2023-05-19T06:24:04;7.68;;;4.20;;
20375;SDS011;10347;51.828;6.466;2023-05-19T06:26:29;10.30;;;4.60;;
20375;SDS011;10347;51.828;6.466;2023-05-19T06:28:55;8.68;;;4.45;;
20375;SDS011;10347;51.828;6.466;2023-05-19T06:31:20;9.32;;;4.88;;
20375;SDS011;10347;51.828;6.466;2023-05-19T06:33:46;6.93;;;4.40;;
20375;SDS011;10347;51.828;6.466;2023-05-19T06:36:12;6.95;;;3.78;;
20375;SDS011;10347;51.828;6.466;2023-05-19T06:38:37;8.13;;;4.78;;
20375;SDS011;10347;51.828;6.466;2023-05-19T06:41:03;10.90;;;4.65;;
20375;SDS011;10347;51.828;6.466;2023-05-19T06:43:29;10.07;;;4.43;;
20375;SDS011;10347;51.828;6.466;2023-05-19T06:45:54;10.52;;;4.57;;
20375;SDS011;10347;51.828;6.466;2023-05-19T06:48:20;6.80;;;3.40;;
20375;SDS011;10347;51.828;6.466;2023-05-19T06:50:45;8.60;;;4.53;;
20375;SDS011;10347;51.828;6.466;2023-05-19T06:53:11;6.63;;;4.10;;
20375;SDS011;10347;51.828;6.466;2023-05-19T06:55:36;4.82;;;3.20;;
20375;SDS011;10347;51.828;6.466;2023-05-19T06:58:02;8.00;;;4.07;;
20375;SDS011;10347;51.828;6.466;2023-05-19T07:00:27;10.48;;;4.10;;
20375;SDS011;10347;51.828;6.466;2023-05-19T07:02:53;6.53;;;3.75;;
20375;SDS011;10347;51.828;6.466;2023-05-19T07:05:19;6.05;;;3.53;;
20375;SDS011;10347;51.828;6.466;2023-05-19T07:07:45;8.23;;;3.90;;
20375;SDS011;10347;51.828;6.466;2023-05-19T07:10:10;7.47;;;3.95;;
20375;SDS011;10347;51.828;6.466;2023-05-19T07:12:36;8.00;;;3.63;;
20375;SDS011;10347;51.828;6.466;2023-05-19T07:15:01;8.13;;;3.90;;
20375;SDS011;10347;51.828;6.466;2023-05-19T07:17:27;6.82;;;3.33;;
20375;SDS011;10347;51.828;6.466;2023-05-19T07:19:53;6.63;;;3.40;;
20375;SDS011;10347;51.828;6.466;2023-05-19T07:22:18;6.38;;;3.10;;
20375;SDS011;10347;51.828;6.466;2023-05-19T07:24:44;8.98;;;3.30;;
20375;SDS011;10347;51.828;6.466;2023-05-19T07:27:09;9.40;;;3.28;;
20375;SDS011;10347;51.828;6.466;2023-05-19T07:29:35;3.08;;;2.42;;
20375;SDS011;10347;51.828;6.466;2023-05-19T07:32:01;6.45;;;3.35;;
20375;SDS011;10347;51.828;6.466;2023-05-19T07:34:26;9.18;;;2.95;;
20375;SDS011;10347;51.828;6.466;2023-05-19T07:36:52;7.45;;;2.88;;
20375;SDS011;10347;51.828;6.466;2023-05-19T07:39:17;7.25;;;3.13;;
20375;SDS011;10347;51.828;6.466;2023-05-19T07:41:43;6.38;;;2.88;;
20375;SDS011;10347;51.828;6.466;2023-05-19T07:44:08;6.68;;;3.00;;
20375;SDS011;10347;51.828;6.466;2023-05-19T07:46:35;6.28;;;2.92;;
20375;SDS011;10347;51.828;6.466;2023-05-19T07:49:01;6.85;;;2.65;;
20375;SDS011;10347;51.828;6.466;2023-05-19T07:51:27;5.15;;;2.70;;
20375;SDS011;10347;51.828;6.466;2023-05-19T07:53:53;7.75;;;2.90;;
20375;SDS011;10347;51.828;6.466;2023-05-19T07:56:18;4.32;;;2.60;;
20375;SDS011;10347;51.828;6.466;2023-05-19T07:58:45;4.45;;;2.60;;
20375;SDS011;10347;51.828;6.466;2023-05-19T08:01:11;7.22;;;2.47;;
20375;SDS011;10347;51.828;6.466;2023-05-19T08:03:36;8.13;;;2.95;;
20375;SDS011;10347;51.828;6.466;2023-05-19T08:06:02;4.90;;;2.55;;
20375;SDS011;10347;51.828;6.466;2023-05-19T08:08:27;3.53;;;2.35;;
20375;SDS011;10347;51.828;6.466;2023-05-19T08:10:53;4.00;;;2.10;;
20375;SDS011;10347;51.828;6.466;2023-05-19T08:13:18;7.05;;;2.60;;
20375;SDS011;10347;51.828;6.466;2023-05-19T08:15:44;6.68;;;3.05;;
20375;SDS011;10347;51.828;6.466;2023-05-19T08:18:10;9.90;;;3.17;;
20375;SDS011;10347;51.828;6.466;2023-05-19T08:20:35;7.50;;;2.67;;
20375;SDS011;10347;51.828;6.466;2023-05-19T08:23:01;6.03;;;2.55;;
20375;SDS011;10347;51.828;6.466;2023-05-19T08:25:27;4.60;;;2.33;;
20375;SDS011;10347;51.828;6.466;2023-05-19T08:27:52;7.18;;;2.80;;
20375;SDS011;10347;51.828;6.466;2023-05-19T08:30:18;5.82;;;2.42;;
20375;SDS011;10347;51.828;6.466;2023-05-19T08:32:44;5.78;;;2.28;;
20375;SDS011;10347;51.828;6.466;2023-05-19T08:35:09;7.00;;;2.05;;
20375;SDS011;10347;51.828;6.466;2023-05-19T08:37:35;2.85;;;1.90;;
20375;SDS011;10347;51.828;6.466;2023-05-19T08:40:02;8.15;;;2.22;;
20375;SDS011;10347;51.828;6.466;2023-05-19T08:42:32;9.98;;;2.28;;
20375;SDS011;10347;51.828;6.466;2023-05-19T08:44:58;5.70;;;2.15;;
20375;SDS011;10347;51.828;6.466;2023-05-19T08:47:25;4.15;;;1.88;;
20375;SDS011;10347;51.828;6.466;2023-05-19T08:49:52;6.75;;;2.03;;
20375;SDS011;10347;51.828;6.466;2023-05-19T08:52:24;4.80;;;2.22;;
20375;SDS011;10347;51.828;6.466;2023-05-19T08:57:37;5.75;;;1.77;;
20375;SDS011;10347;51.828;6.466;2023-05-19T09:00:03;6.60;;;2.40;;
20375;SDS011;10347;51.828;6.466;2023-05-19T09:02:35;6.95;;;2.15;;
20375;SDS011;10347;51.828;6.466;2023-05-19T09:05:02;5.13;;;2.00;;
20375;SDS011;10347;51.828;6.466;2023-05-19T09:07:30;7.60;;;2.47;;
20375;SDS011;10347;51.828;6.466;2023-05-19T09:09:58;6.13;;;1.92;;
20375;SDS011;10347;51.828;6.466;2023-05-19T09:12:25;4.03;;;2.13;;
20375;SDS011;10347;51.828;6.466;2023-05-19T09:14:51;7.18;;;2.70;;
20375;SDS011;10347;51.828;6.466;2023-05-19T09:17:17;7.10;;;2.20;;
20375;SDS011;10347;51.828;6.466;2023-05-19T09:19:45;7.60;;;2.35;;
20375;SDS011;10347;51.828;6.466;2023-05-19T09:22:13;4.65;;;2.00;;
20375;SDS011;10347;51.828;6.466;2023-05-19T09:24:40;5.20;;;2.13;;
20375;SDS011;10347;51.828;6.466;2023-05-19T09:27:06;5.80;;;2.05;;
20375;SDS011;10347;51.828;6.466;2023-05-19T09:29:32;5.78;;;1.92;;
20375;SDS011;10347;51.828;6.466;2023-05-19T09:31:57;7.53;;;2.35;;
20375;SDS011;10347;51.828;6.466;2023-05-19T09:34:29;6.45;;;2.15;;
20375;SDS011;10347;51.828;6.466;2023-05-19T09:36:55;5.20;;;1.90;;
20375;SDS011;10347;51.828;6.466;2023-05-19T09:39:23;4.63;;;1.90;;
20375;SDS011;10347;51.828;6.466;2023-05-19T09:41:50;3.28;;;1.75;;
20375;SDS011;10347;51.828;6.466;2023-05-19T09:46:56;6.25;;;2.40;;
20375;SDS011;10347;51.828;6.466;2023-05-19T09:49:23;2.53;;;1.90;;
20375;SDS011;10347;51.828;6.466;2023-05-19T09:51:53;7.85;;;2.45;;
20375;SDS011;10347;51.828;6.466;2023-05-19T09:54:23;6.68;;;2.13;;
20375;SDS011;10347;51.828;6.466;2023-05-19T09:56:50;4.32;;;1.88;;
20375;SDS011;10347;51.828;6.466;2023-05-19T09:59:26;5.72;;;1.80;;
20375;SDS011;10347;51.828;6.466;2023-05-19T10:01:59;5.30;;;1.85;;
20375;SDS011;10347;51.828;6.466;2023-05-19T10:04:26;5.38;;;2.28;;
20375;SDS011;10347;51.828;6.466;2023-05-19T10:06:54;4.78;;;1.80;;
20375;SDS011;10347;51.828;6.466;2023-05-19T10:09:23;3.20;;;1.98;;
20375;SDS011;10347;51.828;6.466;2023-05-19T10:11:51;3.55;;;2.08;;
20375;SDS011;10347;51.828;6.466;2023-05-19T10:14:27;6.15;;;1.90;;
20375;SDS011;10347;51.828;6.466;2023-05-19T10:16:54;5.82;;;1.90;;
20375;SDS011;10347;51.828;6.466;2023-05-19T10:19:24;8.00;;;2.42;;
20375;SDS011;10347;51.828;6.466;2023-05-19T10:21:50;4.78;;;1.92;;
20375;SDS011;10347;51.828;6.466;2023-05-19T10:24:17;7.78;;;1.85;;
20375;SDS011;10347;51.828;6.466;2023-05-19T10:26:44;3.55;;;1.63;;
20375;SDS011;10347;51.828;6.466;2023-05-19T10:29:15;4.88;;;1.90;;
20375;SDS011;10347;51.828;6.466;2023-05-19T10:31:43;4.22;;;1.92;;
20375;SDS011;10347;51.828;6.466;2023-05-19T10:36:52;6.95;;;2.13;;
20375;SDS011;10347;51.828;6.466;2023-05-19T10:39:32;4.65;;;2.20;;
20375;SDS011;10347;51.828;6.466;2023-05-19T10:47:43;5.78;;;2.10;;
20375;SDS011;10347;51.828;6.466;2023-05-19T10:50:10;6.95;;;1.98;;
20375;SDS011;10347;51.828;6.466;2023-05-19T10:52:36;5.95;;;2.03;;
20375;SDS011;10347;51.828;6.466;2023-05-19T10:55:03;4.38;;;1.50;;
20375;SDS011;10347;51.828;6.466;2023-05-19T10:57:32;3.90;;;1.70;;
20375;SDS011;10347;51.828;6.466;2023-05-19T10:59:59;3.97;;;1.85;;
20375;SDS011;10347;51.828;6.466;2023-05-19T11:05:12;5.80;;;2.17;;
20375;SDS011;10347;51.828;6.466;2023-05-19T11:07:40;6.80;;;2.00;;
20375;SDS011;10347;51.828;6.466;2023-05-19T11:10:08;8.40;;;2.15;;
20375;SDS011;10347;51.828;6.466;2023-05-19T11:12:41;5.10;;;2.03;;
20375;SDS011;10347;51.828;6.466;2023-05-19T11:15:12;6.15;;;2.22;;
20375;SDS011;10347;51.828;6.466;2023-05-19T11:17:39;7.43;;;2.08;;
20375;SDS011;10347;51.828;6.466;2023-05-19T11:20:06;5.05;;;2.10;;
20375;SDS011;10347;51.828;6.466;2023-05-19T11:22:36;8.05;;;2.25;;
20375;SDS011;10347;51.828;6.466;2023-05-19T11:25:03;7.30;;;2.10;;
20375;SDS011;10347;51.828;6.466;2023-05-19T11:27:31;5.22;;;1.75;;
20375;SDS011;10347;51.828;6.466;2023-05-19T11:32:35;6.57;;;2.47;;
20375;SDS011;10347;51.828;6.466;2023-05-19T11:35:06;3.10;;;2.20;;
20375;SDS011;10347;51.828;6.466;2023-05-19T11:37:35;3.85;;;1.85;;
20375;SDS011;10347;51.828;6.466;2023-05-19T11:40:01;5.47;;;1.83;;
20375;SDS011;10347;51.828;6.466;2023-05-19T11:42:30;4.57;;;1.83;;
20375;SDS011;10347;51.828;6.466;2023-05-19T11:44:56;5.13;;;2.08;;
20375;SDS011;10347;51.828;6.466;2023-05-19T11:47:21;5.07;;;2.40;;
20375;SDS011;10347;51.828;6.466;2023-05-19T11:49:47;5.88;;;2.08;;
20375;SDS011;10347;51.828;6.466;2023-05-19T11:52:15;3.72;;;2.00;;
20375;SDS011;10347;51.828;6.466;2023-05-19T11:54:41;6.35;;;2.20;;
20375;SDS011;10347;51.828;6.466;2023-05-19T11:57:07;6.50;;;2.33;;
20375;SDS011;10347;51.828;6.466;2023-05-19T11:59:35;3.75;;;2.10;;
20375;SDS011;10347;51.828;6.466;2023-05-19T12:02:14;1.67;;;1.58;;
20375;SDS011;10347;51.828;6.466;2023-05-19T12:04:43;4.50;;;2.00;;
20375;SDS011;10347;51.828;6.466;2023-05-19T12:07:12;3.83;;;1.95;;
20375;SDS011;10347;51.828;6.466;2023-05-19T12:09:41;6.30;;;2.75;;
20375;SDS011;10347;51.828;6.466;2023-05-19T12:12:07;7.47;;;2.20;;
20375;SDS011;10347;51.828;6.466;2023-05-19T12:14:33;6.50;;;2.22;;
20375;SDS011;10347;51.828;6.466;2023-05-19T12:17:08;7.15;;;2.35;;
20375;SDS011;10347;51.828;6.466;2023-05-19T12:19:38;6.15;;;2.03;;
20375;SDS011;10347;51.828;6.466;2023-05-19T12:22:05;4.75;;;2.10;;
20375;SDS011;10347;51.828;6.466;2023-05-19T12:24:32;4.60;;;2.00;;
20375;SDS011;10347;51.828;6.466;2023-05-19T12:27:21;3.72;;;1.83;;
20375;SDS011;10347;51.828;6.466;2023-05-19T12:29:51;3.33;;;1.75;;
20375;SDS011;10347;51.828;6.466;2023-05-19T12:32:27;7.25;;;2.15;;
20375;SDS011;10347;51.828;6.466;2023-05-19T12:34:56;5.22;;;2.10;;
20375;SDS011;10347;51.828;6.466;2023-05-19T12:37:24;2.03;;;1.60;;
20375;SDS011;10347;51.828;6.466;2023-05-19T12:39:51;4.18;;;2.08;;
20375;SDS011;10347;51.828;6.466;2023-05-19T12:42:17;2.63;;;1.65;;
20375;SDS011;10347;51.828;6.466;2023-05-19T12:44:44;5.05;;;1.70;;
20375;SDS011;10347;51.828;6.466;2023-05-19T12:47:12;6.40;;;1.98;;
20375;SDS011;10347;51.828;6.466;2023-05-19T12:49:54;3.92;;;1.90;;
20375;SDS011;10347;51.828;6.466;2023-05-19T12:52:30;4.40;;;2.13;;
20375;SDS011;10347;51.828;6.466;2023-05-19T12:55:03;4.82;;;2.08;;
20375;SDS011;10347;51.828;6.466;2023-05-19T12:57:33;6.60;;;1.95;;
20375;SDS011;10347;51.828;6.466;2023-05-19T13:00:00;6.18;;;2.05;;
20375;SDS011;10347;51.828;6.466;2023-05-19T13:02:26;4.70;;;2.20;;
20375;SDS011;10347;51.828;6.466;2023-05-19T13:04:51;5.57;;;2.10;;
20375;SDS011;10347;51.828;6.466;2023-05-19T13:07:18;3.90;;;1.73;;
20375;SDS011;10347;51.828;6.466;2023-05-19T13:09:44;8.02;;;2.38;;
20375;SDS011;10347;51.828;6.466;2023-05-19T13:12:10;5.10;;;2.10;;
20375;SDS011;10347;51.828;6.466;2023-05-19T13:14:35;2.92;;;1.60;;
20375;SDS011;10347;51.828;6.466;2023-05-19T13:17:01;2.20;;;1.30;;
20375;SDS011;10347;51.828;6.466;2023-05-19T13:19:27;5.30;;;1.70;;
20375;SDS011;10347;51.828;6.466;2023-05-19T13:21:53;8.32;;;2.90;;
20375;SDS011;10347;51.828;6.466;2023-05-19T13:24:18;10.35;;;3.40;;
20375;SDS011;10347;51.828;6.466;2023-05-19T13:26:44;8.93;;;2.97;;
20375;SDS011;10347;51.828;6.466;2023-05-19T13:29:09;15.05;;;3.50;;
20375;SDS011;10347;51.828;6.466;2023-05-19T13:31:36;7.20;;;2.53;;
20375;SDS011;10347;51.828;6.466;2023-05-19T13:34:01;9.00;;;3.38;;
20375;SDS011;10347;51.828;6.466;2023-05-19T13:36:27;10.80;;;3.63;;
20375;SDS011;10347;51.828;6.466;2023-05-19T13:38:53;6.53;;;2.00;;
20375;SDS011;10347;51.828;6.466;2023-05-19T13:41:22;9.52;;;2.70;;
20375;SDS011;10347;51.828;6.466;2023-05-19T13:43:50;7.10;;;2.28;;
20375;SDS011;10347;51.828;6.466;2023-05-19T13:46:16;4.75;;;2.17;;
20375;SDS011;10347;51.828;6.466;2023-05-19T13:48:41;6.03;;;2.30;;
20375;SDS011;10347;51.828;6.466;2023-05-19T13:51:07;4.00;;;1.77;;
20375;SDS011;10347;51.828;6.466;2023-05-19T13:53:32;7.28;;;2.65;;
20375;SDS011;10347;51.828;6.466;2023-05-19T13:55:59;5.70;;;2.35;;
20375;SDS011;10347;51.828;6.466;2023-05-19T13:58:24;7.85;;;2.85;;
20375;SDS011;10347;51.828;6.466;2023-05-19T14:00:50;8.43;;;3.50;;
20375;SDS011;10347;51.828;6.466;2023-05-19T14:03:18;6.22;;;2.80;;
20375;SDS011;10347;51.828;6.466;2023-05-19T14:05:46;12.75;;;3.45;;
20375;SDS011;10347;51.828;6.466;2023-05-19T14:08:12;6.50;;;2.20;;
20375;SDS011;10347;51.828;6.466;2023-05-19T14:10:38;12.60;;;3.75;;
20375;SDS011;10347;51.828;6.466;2023-05-19T14:13:04;7.55;;;2.30;;
20375;SDS011;10347;51.828;6.466;2023-05-19T14:15:29;3.55;;;1.90;;
20375;SDS011;10347;51.828;6.466;2023-05-19T14:17:58;10.93;;;3.50;;
20375;SDS011;10347;51.828;6.466;2023-05-19T14:20:24;7.07;;;2.10;;
20375;SDS011;10347;51.828;6.466;2023-05-19T14:22:49;7.57;;;2.08;;
20375;SDS011;10347;51.828;6.466;2023-05-19T14:25:15;9.15;;;3.10;;
20375;SDS011;10347;51.828;6.466;2023-05-19T14:27:40;3.03;;;1.60;;
20375;SDS011;10347;51.828;6.466;2023-05-19T14:30:06;9.50;;;2.00;;
20375;SDS011;10347;51.828;6.466;2023-05-19T14:32:32;4.45;;;2.05;;
20375;SDS011;10347;51.828;6.466;2023-05-19T14:34:57;4.97;;;1.40;;
20375;SDS011;10347;51.828;6.466;2023-05-19T14:37:23;5.80;;;1.88;;
20375;SDS011;10347;51.828;6.466;2023-05-19T14:39:52;7.50;;;2.45;;
20375;SDS011;10347;51.828;6.466;2023-05-19T14:42:18;5.45;;;2.25;;
20375;SDS011;10347;51.828;6.466;2023-05-19T14:44:43;5.38;;;2.05;;
20375;SDS011;10347;51.828;6.466;2023-05-19T14:47:09;5.75;;;2.28;;
20375;SDS011;10347;51.828;6.466;2023-05-19T14:49:36;5.35;;;1.80;;
20375;SDS011;10347;51.828;6.466;2023-05-19T14:52:02;3.35;;;2.03;;
20375;SDS011;10347;51.828;6.466;2023-05-19T14:54:27;4.03;;;1.70;;
20375;SDS011;10347;51.828;6.466;2023-05-19T14:56:53;2.90;;;1.58;;
20375;SDS011;10347;51.828;6.466;2023-05-19T14:59:18;5.55;;;1.90;;
20375;SDS011;10347;51.828;6.466;2023-05-19T15:01:45;4.03;;;1.70;;
20375;SDS011;10347;51.828;6.466;2023-05-19T15:04:11;6.53;;;2.15;;
20375;SDS011;10347;51.828;6.466;2023-05-19T15:06:36;2.75;;;1.67;;
20375;SDS011;10347;51.828;6.466;2023-05-19T15:09:02;3.15;;;1.63;;
20375;SDS011;10347;51.828;6.466;2023-05-19T15:11:27;4.88;;;1.90;;
20375;SDS011;10347;51.828;6.466;2023-05-19T15:13:54;4.03;;;1.85;;
20375;SDS011;10347;51.828;6.466;2023-05-19T15:16:19;4.00;;;2.03;;
20375;SDS011;10347;51.828;6.466;2023-05-19T15:18:45;4.97;;;1.98;;
20375;SDS011;10347;51.828;6.466;2023-05-19T15:21:10;7.15;;;2.53;;